createdAt,value
2018-08-13T00:00:47.170Z,87.30
2018-08-13T00:03:16.225Z,87.00
2018-08-13T00:05:44.521Z,87.30
2018-08-13T00:08:12.883Z,88.50
2018-08-13T00:10:41.108Z,88.20
2018-08-13T00:13:09.234Z,87.70
2018-08-13T00:15:37.221Z,87.50
2018-08-13T00:18:06.384Z,87.40
2018-08-13T00:20:35.287Z,87.80
2018-08-13T00:23:03.960Z,87.70
2018-08-13T00:25:32.145Z,87.40
2018-08-13T00:28:00.069Z,87.50
2018-08-13T00:30:28.521Z,87.00
2018-08-13T00:32:56.493Z,86.60
2018-08-13T00:35:24.853Z,87.60
2018-08-13T00:37:52.852Z,88.30
2018-08-13T00:40:20.807Z,88.30
2018-08-13T00:42:48.749Z,87.70
2018-08-13T00:45:17.403Z,87.60
2018-08-13T00:47:45.324Z,87.90
2018-08-13T00:50:14.520Z,87.70
2018-08-13T00:52:43.581Z,87.50
2018-08-13T00:55:12.915Z,88.10
2018-08-13T00:57:40.937Z,87.90
2018-08-13T01:00:16.440Z,88.20
2018-08-13T01:02:45.109Z,88.00
2018-08-13T01:05:14.042Z,88.00
2018-08-13T01:07:42.506Z,88.00
2018-08-13T01:10:14.934Z,88.10
2018-08-13T01:12:43.430Z,88.00
2018-08-13T01:15:13.188Z,87.80
2018-08-13T01:17:42.736Z,87.90
2018-08-13T01:20:12.110Z,87.80
2018-08-13T01:22:40.675Z,87.90
2018-08-13T01:25:11.455Z,87.90
2018-08-13T01:27:40.452Z,88.20
2018-08-13T01:30:10.082Z,88.20
2018-08-13T01:32:39.432Z,88.10
2018-08-13T01:35:07.659Z,87.80
2018-08-13T01:37:35.545Z,88.20
2018-08-13T01:40:07.499Z,88.30
2018-08-13T01:42:35.599Z,88.90
2018-08-13T01:45:05.424Z,89.10
2018-08-13T01:47:33.355Z,89.50
2018-08-13T01:50:01.761Z,90.00
2018-08-13T01:52:29.721Z,90.10
2018-08-13T01:54:58.313Z,90.30
2018-08-13T01:57:26.326Z,90.50
2018-08-13T01:59:54.288Z,90.60
2018-08-13T02:02:22.826Z,90.70
2018-08-13T02:04:51.412Z,90.70
2018-08-13T02:07:19.364Z,90.60
2018-08-13T02:09:47.270Z,90.60
2018-08-13T02:12:15.811Z,90.40
2018-08-13T02:14:43.748Z,90.40
2018-08-13T02:17:12.034Z,90.40
2018-08-13T02:19:40.076Z,90.50
2018-08-13T02:22:08.025Z,90.40
2018-08-13T02:24:35.948Z,90.40
2018-08-13T02:27:04.698Z,90.40
2018-08-13T02:29:32.642Z,90.30
2018-08-13T02:32:00.582Z,90.40
2018-08-13T02:34:28.508Z,90.30
2018-08-13T02:36:56.468Z,90.20
2018-08-13T02:39:24.416Z,90.20
2018-08-13T02:41:52.934Z,90.00
2018-08-13T02:44:20.905Z,90.00
2018-08-13T02:46:48.821Z,90.10
2018-08-13T02:49:16.783Z,90.20
2018-08-13T02:51:44.829Z,90.00
2018-08-13T02:54:12.796Z,90.10
2018-08-13T02:56:40.675Z,90.10
2018-08-13T02:59:08.606Z,90.10
2018-08-13T03:01:37.186Z,90.00
2018-08-13T03:04:05.149Z,89.90
2018-08-13T03:06:33.219Z,90.00
2018-08-13T03:09:03.086Z,89.30
2018-08-13T03:11:31.673Z,89.40
2018-08-13T03:13:59.597Z,89.60
2018-08-13T03:16:27.563Z,89.60
2018-08-13T03:18:55.525Z,89.60
2018-08-13T03:21:23.509Z,89.40
2018-08-13T03:23:51.466Z,89.60
2018-08-13T03:26:20.000Z,89.30
2018-08-13T03:28:47.965Z,89.40
2018-08-13T03:31:15.842Z,89.90
2018-08-13T03:33:43.841Z,90.40
2018-08-13T03:36:12.324Z,90.60
2018-08-13T03:38:40.540Z,90.80
2018-08-13T03:41:08.570Z,90.60
2018-08-13T03:43:36.792Z,90.60
2018-08-13T03:46:04.822Z,90.40
2018-08-13T03:48:33.107Z,90.60
2018-08-13T03:51:01.619Z,90.70
2018-08-13T03:53:30.570Z,90.70
2018-08-13T03:55:59.180Z,90.70
2018-08-13T03:58:27.877Z,90.60
2018-08-13T04:00:55.815Z,90.40
2018-08-13T04:03:24.022Z,90.50
2018-08-13T04:05:51.950Z,90.80
2018-08-13T04:08:20.430Z,90.90
2018-08-13T04:10:48.389Z,90.90
2018-08-13T04:13:17.024Z,91.00
2018-08-13T04:15:44.956Z,90.80
2018-08-13T04:18:12.909Z,90.60
2018-08-13T04:20:40.863Z,90.60
2018-08-13T04:23:08.859Z,90.60
2018-08-13T04:25:36.730Z,90.80
2018-08-13T04:28:05.252Z,90.70
2018-08-13T04:30:33.295Z,90.80
2018-08-13T04:33:01.260Z,90.90
2018-08-13T04:35:29.695Z,90.90
2018-08-13T04:37:57.685Z,91.00
2018-08-13T04:40:26.278Z,91.20
2018-08-13T04:42:55.181Z,91.20
2018-08-13T04:45:23.740Z,91.20
2018-08-13T04:47:54.847Z,91.40
2018-08-13T04:50:24.043Z,91.40
2018-08-13T04:52:52.317Z,91.40
2018-08-13T04:55:20.998Z,91.50
2018-08-13T04:57:48.998Z,91.70
2018-08-13T05:00:17.935Z,91.60
2018-08-13T05:02:47.380Z,91.50
2018-08-13T05:05:15.436Z,91.60
2018-08-13T05:07:43.394Z,91.50
2018-08-13T05:10:11.606Z,91.60
2018-08-13T05:12:40.419Z,91.40
2018-08-13T05:15:09.524Z,91.50
2018-08-13T05:17:37.522Z,91.60
2018-08-13T05:20:06.884Z,91.60
2018-08-13T05:22:34.803Z,91.80
2018-08-13T05:25:04.275Z,91.70
2018-08-13T05:27:32.296Z,91.80
2018-08-13T05:30:00.268Z,91.70
2018-08-13T05:32:28.208Z,91.70
2018-08-13T05:34:57.544Z,91.60
2018-08-13T05:37:26.134Z,91.70
2018-08-13T05:39:54.820Z,91.70
2018-08-13T05:42:22.750Z,91.60
2018-08-13T05:44:51.146Z,91.70
2018-08-13T05:47:19.876Z,91.80
2018-08-13T05:49:47.920Z,91.40
2018-08-13T05:52:16.459Z,90.90
2018-08-13T05:54:45.078Z,90.70
2018-08-13T05:57:13.155Z,90.20
2018-08-13T05:59:41.319Z,90.00
2018-08-13T06:02:09.320Z,89.80
2018-08-13T06:04:37.350Z,87.50
2018-08-13T06:07:05.831Z,86.40
2018-08-13T06:09:33.814Z,86.10
2018-08-13T06:12:01.827Z,84.30
2018-08-13T06:14:29.771Z,85.00
2018-08-13T06:16:57.781Z,83.40
2018-08-13T06:19:25.765Z,81.10
2018-08-13T06:21:58.211Z,82.20
2018-08-13T06:24:26.210Z,81.50
2018-08-13T06:26:54.246Z,80.40
2018-08-13T06:29:22.194Z,80.40
2018-08-13T06:31:50.830Z,79.40
2018-08-13T06:34:19.366Z,79.50
2018-08-13T06:36:48.184Z,79.30
2018-08-13T06:39:16.210Z,78.80
2018-08-13T06:41:44.162Z,77.50
2018-08-13T06:44:12.113Z,78.30
2018-08-13T06:46:40.358Z,77.30
2018-08-13T06:49:08.913Z,76.00
2018-08-13T06:51:37.405Z,77.10
2018-08-13T06:54:05.979Z,76.80
2018-08-13T06:56:34.008Z,77.30
2018-08-13T06:59:02.586Z,77.40
2018-08-13T07:01:30.535Z,78.10
2018-08-13T07:03:59.184Z,76.90
2018-08-13T07:06:27.190Z,77.50
2018-08-13T07:08:55.180Z,76.40
2018-08-13T07:11:23.213Z,76.40
2018-08-13T07:13:51.753Z,76.20
2018-08-13T07:16:19.711Z,73.80
2018-08-13T07:18:47.699Z,74.30
2018-08-13T07:21:16.229Z,74.20
2018-08-13T07:23:44.818Z,74.20
2018-08-13T07:26:13.422Z,74.90
2018-08-13T07:28:41.339Z,74.10
2018-08-13T07:31:09.272Z,74.20
2018-08-13T07:33:37.975Z,75.50
2018-08-13T07:36:07.326Z,74.40
2018-08-13T07:38:35.267Z,74.50
2018-08-13T07:41:03.291Z,74.10
2018-08-13T07:43:31.407Z,73.00
2018-08-13T07:46:00.040Z,74.60
2018-08-13T07:48:28.026Z,73.00
2018-08-13T07:50:56.057Z,73.90
2018-08-13T07:53:23.997Z,73.20
2018-08-13T07:55:52.569Z,72.70
2018-08-13T07:58:21.150Z,72.00
2018-08-13T08:00:49.112Z,71.80
2018-08-13T08:03:17.188Z,71.10
2018-08-13T08:05:46.002Z,72.70
2018-08-13T08:08:14.645Z,69.40
2018-08-13T08:10:42.630Z,70.80
2018-08-13T08:13:10.606Z,69.40
2018-08-13T08:15:38.591Z,67.90
2018-08-13T08:18:06.656Z,65.80
2018-08-13T08:20:37.437Z,65.40
2018-08-13T08:23:16.478Z,64.00
2018-08-13T08:25:45.043Z,64.60
2018-08-13T08:28:13.063Z,64.00
2018-08-13T08:30:40.978Z,63.70
2018-08-13T08:33:08.888Z,64.30
2018-08-13T08:35:36.796Z,63.90
2018-08-13T08:38:05.656Z,64.60
2018-08-13T08:40:34.517Z,65.10
2018-08-13T08:43:02.502Z,64.10
2018-08-13T08:45:30.545Z,65.00
2018-08-13T08:47:58.585Z,63.80
2018-08-13T08:50:27.376Z,64.10
2018-08-13T08:52:55.411Z,64.20
2018-08-13T08:55:23.412Z,64.40
2018-08-13T08:57:51.485Z,64.50
2018-08-13T09:00:22.006Z,65.30
2018-08-13T09:02:50.052Z,64.70
2018-08-13T09:05:18.037Z,63.80
2018-08-13T09:07:47.496Z,63.70
2018-08-13T09:10:15.710Z,65.00
2018-08-13T09:12:43.770Z,64.30
2018-08-13T09:15:13.850Z,61.70
2018-08-13T09:17:54.229Z,60.20
2018-08-13T09:20:33.519Z,59.50
2018-08-13T09:23:12.814Z,56.70
2018-08-13T09:25:52.190Z,54.90
2018-08-13T09:28:32.298Z,55.20
2018-08-13T09:31:11.609Z,54.90
2018-08-13T09:33:51.473Z,53.40
2018-08-13T09:36:19.394Z,53.70
2018-08-13T09:38:47.366Z,54.30
2018-08-13T09:41:15.395Z,54.40
2018-08-13T09:43:43.981Z,53.00
2018-08-13T09:46:11.970Z,53.60
2018-08-13T09:48:39.870Z,53.60
2018-08-13T09:51:07.925Z,54.00
2018-08-13T09:53:35.854Z,53.00
2018-08-13T09:56:03.917Z,52.70
2018-08-13T09:58:31.910Z,52.50
2018-08-13T10:01:07.349Z,52.40
2018-08-13T10:03:35.268Z,52.30
2018-08-13T10:06:03.519Z,52.50
2018-08-13T10:08:32.765Z,51.10
2018-08-13T10:11:00.739Z,50.70
2018-08-13T10:13:28.849Z,48.90
2018-08-13T10:15:56.881Z,49.50
2018-08-13T10:18:24.954Z,49.50
2018-08-13T10:20:53.591Z,48.40
2018-08-13T10:23:21.585Z,47.80
2018-08-13T10:28:14.024Z,47.70
2018-08-13T10:30:42.014Z,48.40
2018-08-13T10:33:10.997Z,47.30
2018-08-13T10:35:39.000Z,47.30
2018-08-13T10:38:07.179Z,46.90
2018-08-13T10:40:35.778Z,44.10
2018-08-13T10:43:03.930Z,46.80
2018-08-13T10:45:31.947Z,46.70
2018-08-13T10:48:00.039Z,46.50
2018-08-13T10:50:27.964Z,43.30
2018-08-13T10:52:55.918Z,43.40
2018-08-13T10:55:24.380Z,43.80
2018-08-13T10:57:52.482Z,45.10
2018-08-13T11:00:21.392Z,44.60
2018-08-13T11:02:49.397Z,44.70
2018-08-13T11:05:17.373Z,44.70
2018-08-13T11:07:47.069Z,45.20
2018-08-13T11:10:15.634Z,44.50
2018-08-13T11:12:44.292Z,44.10
2018-08-13T11:15:15.065Z,44.30
2018-08-13T11:17:43.145Z,44.30
2018-08-13T11:20:11.216Z,43.80
2018-08-13T11:22:40.660Z,43.30
2018-08-13T11:25:10.739Z,42.50
2018-08-13T11:27:38.637Z,42.20
2018-08-13T11:30:08.973Z,42.10
2018-08-13T11:32:37.012Z,42.50
2018-08-13T11:35:05.918Z,42.60
2018-08-13T11:37:34.615Z,42.90
2018-08-13T11:40:03.618Z,42.00
2018-08-13T11:42:31.554Z,42.60
2018-08-13T11:44:59.464Z,42.20
2018-08-13T11:47:27.460Z,42.10
2018-08-13T11:49:55.385Z,41.70
2018-08-13T11:52:24.567Z,41.50
2018-08-13T11:54:52.456Z,41.40
2018-08-13T11:57:21.238Z,40.90
2018-08-13T11:59:49.214Z,40.70
2018-08-13T12:02:17.265Z,41.60
2018-08-13T12:04:46.215Z,42.50
2018-08-13T12:07:14.170Z,41.90
2018-08-13T12:09:42.044Z,42.40
2018-08-13T12:12:12.079Z,42.00
2018-08-13T12:14:40.536Z,41.20
2018-08-13T12:17:08.462Z,40.60
2018-08-13T12:19:36.479Z,40.80
2018-08-13T12:22:04.528Z,39.80
2018-08-13T12:24:32.513Z,40.20
2018-08-13T12:27:00.527Z,39.90
2018-08-13T12:29:28.427Z,39.30
2018-08-13T12:31:56.358Z,38.70
2018-08-13T12:34:24.305Z,36.50
2018-08-13T12:36:56.805Z,36.90
2018-08-13T12:39:24.730Z,36.60
2018-08-13T12:41:52.640Z,37.80
2018-08-13T12:44:20.578Z,38.00
2018-08-13T12:46:48.632Z,37.50
2018-08-13T12:49:16.588Z,37.30
2018-08-13T12:51:44.546Z,36.40
2018-08-13T12:54:12.551Z,35.80
2018-08-13T12:56:40.485Z,35.70
2018-08-13T12:59:08.845Z,35.20
2018-08-13T13:01:36.752Z,35.40
2018-08-13T13:04:05.106Z,35.80
2018-08-13T13:06:33.727Z,36.40
2018-08-13T13:09:02.086Z,37.10
2018-08-13T13:11:30.167Z,37.10
2018-08-13T13:13:59.046Z,36.80
2018-08-13T13:16:26.950Z,36.70
2018-08-13T13:18:55.552Z,36.80
2018-08-13T13:21:23.466Z,35.30
2018-08-13T13:23:51.448Z,35.60
2018-08-13T13:26:19.733Z,35.30
2018-08-13T13:28:47.650Z,35.10
2018-08-13T13:31:15.559Z,35.80
2018-08-13T13:33:43.707Z,36.00
2018-08-13T13:36:11.611Z,35.30
2018-08-13T13:38:40.041Z,34.10
2018-08-13T13:41:08.028Z,35.20
2018-08-13T13:43:36.475Z,35.70
2018-08-13T13:46:04.459Z,36.50
2018-08-13T13:48:32.824Z,35.80
2018-08-13T13:51:00.800Z,35.20
2018-08-13T13:53:29.075Z,36.00
2018-08-13T13:56:01.090Z,35.70
2018-08-13T13:58:29.157Z,35.10
2018-08-13T14:00:57.057Z,34.90
2018-08-13T14:06:42.779Z,34.70
2018-08-13T14:09:11.656Z,35.90
2018-08-13T14:11:39.613Z,36.60
2018-08-13T14:14:08.633Z,35.60
2018-08-13T14:16:36.630Z,34.80
2018-08-13T14:19:05.025Z,34.00
2018-08-13T14:21:33.002Z,34.90
2018-08-13T14:24:01.942Z,34.40
2018-08-13T14:26:31.650Z,34.20
2018-08-13T14:28:59.728Z,34.00
2018-08-13T14:31:27.758Z,34.00
2018-08-13T14:33:55.806Z,35.90
2018-08-13T14:36:23.741Z,34.60
2018-08-13T14:38:51.734Z,34.30
2018-08-13T14:41:20.229Z,34.50
2018-08-13T14:43:48.728Z,34.80
2018-08-13T14:46:17.344Z,35.30
2018-08-13T14:48:45.327Z,35.60
2018-08-13T14:51:13.274Z,35.20
2018-08-13T14:53:42.143Z,34.90
2018-08-13T14:56:10.129Z,34.10
2018-08-13T14:58:38.716Z,34.00
2018-08-13T15:01:06.671Z,35.30
2018-08-13T15:03:35.178Z,35.20
2018-08-13T15:06:03.121Z,35.40
2018-08-13T15:08:31.064Z,34.90
2018-08-13T15:10:58.976Z,34.40
2018-08-13T15:13:26.962Z,34.30
2018-08-13T15:15:54.781Z,35.50
2018-08-13T15:18:22.645Z,35.00
2018-08-13T15:20:50.572Z,36.00
2018-08-13T15:23:18.444Z,36.00
2018-08-13T15:25:46.355Z,36.30
2018-08-13T15:28:14.356Z,35.30
2018-08-13T15:30:42.175Z,36.00
2018-08-13T15:33:10.405Z,36.80
2018-08-13T15:35:38.365Z,37.10
2018-08-13T15:38:06.489Z,36.80
2018-08-13T15:40:34.702Z,37.20
2018-08-13T15:43:02.705Z,37.20
2018-08-13T15:45:30.668Z,35.70
2018-08-13T15:47:59.164Z,36.60
2018-08-13T15:50:26.983Z,35.80
2018-08-13T15:52:54.831Z,35.50
2018-08-13T15:55:22.774Z,35.10
2018-08-13T15:57:50.658Z,34.10
2018-08-13T16:00:21.140Z,34.10
2018-08-13T16:02:49.414Z,34.90
2018-08-13T16:05:17.407Z,34.60
2018-08-13T16:07:45.367Z,34.80
2018-08-13T16:10:15.274Z,35.20
2018-08-13T16:12:43.741Z,36.10
2018-08-13T16:15:11.852Z,35.50
2018-08-13T16:17:40.316Z,35.40
2018-08-13T16:20:13.684Z,35.70
2018-08-13T16:22:42.312Z,36.10
2018-08-13T16:25:10.367Z,36.30
2018-08-13T16:27:38.640Z,35.70
2018-08-13T16:30:20.983Z,35.70
2018-08-13T16:32:49.194Z,35.70
2018-08-13T16:35:18.640Z,36.10
2018-08-13T16:37:47.313Z,36.10
2018-08-13T16:40:16.115Z,36.00
2018-08-13T16:42:44.153Z,35.80
2018-08-13T16:45:14.098Z,36.10
2018-08-13T16:47:42.266Z,36.20
2018-08-13T16:50:17.884Z,36.50
2018-08-13T16:52:45.847Z,37.00
2018-08-13T16:55:13.822Z,36.50
2018-08-13T16:57:42.741Z,37.30
2018-08-13T17:00:12.959Z,37.10
2018-08-13T17:02:41.035Z,37.50
2018-08-13T17:05:11.062Z,38.00
2018-08-13T17:07:39.816Z,38.20
2018-08-13T17:10:12.555Z,38.40
2018-08-13T17:12:41.633Z,38.80
2018-08-13T17:15:10.398Z,39.20
2018-08-13T17:17:38.600Z,39.80
2018-08-13T17:20:09.908Z,40.50
2018-08-13T17:22:38.134Z,41.30
2018-08-13T17:25:08.845Z,41.60
2018-08-13T17:27:37.668Z,41.90
2018-08-13T17:30:09.418Z,42.40
2018-08-13T17:32:38.590Z,42.50
2018-08-13T17:35:07.152Z,42.90
2018-08-13T17:37:35.914Z,43.10
2018-08-13T17:40:05.247Z,43.50
2018-08-13T17:42:33.238Z,43.90
2018-08-13T17:45:01.095Z,44.20
2018-08-13T17:47:29.101Z,44.60
2018-08-13T17:49:57.145Z,45.10
2018-08-13T17:52:25.428Z,45.40
2018-08-13T17:54:53.498Z,45.90
2018-08-13T17:57:21.508Z,46.10
2018-08-13T17:59:49.483Z,46.40
2018-08-13T18:02:17.502Z,46.90
2018-08-13T18:04:46.138Z,47.00
2018-08-13T18:07:14.096Z,47.20
2018-08-13T18:09:42.331Z,47.40
2018-08-13T18:12:11.048Z,47.50
2018-08-13T18:14:40.025Z,48.20
2018-08-13T18:17:07.942Z,47.80
2018-08-13T18:19:35.835Z,47.90
2018-08-13T18:22:03.884Z,48.40
2018-08-13T18:24:32.490Z,48.70
2018-08-13T18:27:00.550Z,48.80
2018-08-13T18:29:28.493Z,49.00
2018-08-13T18:31:56.529Z,49.10
2018-08-13T18:34:24.461Z,49.30
2018-08-13T18:36:52.434Z,49.60
2018-08-13T18:39:20.337Z,49.70
2018-08-13T18:41:49.164Z,49.90
2018-08-13T18:44:17.147Z,50.80
2018-08-13T18:46:45.089Z,51.20
2018-08-13T18:49:13.088Z,51.50
2018-08-13T18:51:41.411Z,51.60
2018-08-13T18:54:09.482Z,51.90
2018-08-13T18:56:37.404Z,52.60
2018-08-13T18:59:05.348Z,52.90
2018-08-13T19:01:34.014Z,53.60
2018-08-13T19:04:02.015Z,55.00
2018-08-13T19:06:29.985Z,55.10
2018-08-13T19:08:58.227Z,55.70
2018-08-13T19:11:26.208Z,56.10
2018-08-13T19:13:54.763Z,55.90
2018-08-13T19:16:22.748Z,56.10
2018-08-13T19:18:50.708Z,56.10
2018-08-13T19:21:19.468Z,56.50
2018-08-13T19:23:47.433Z,56.20
2018-08-13T19:26:15.383Z,56.80
2018-08-13T19:28:43.335Z,57.10
2018-08-13T19:31:11.330Z,56.80
2018-08-13T19:33:39.259Z,57.50
2018-08-13T19:36:07.228Z,57.50
2018-08-13T19:38:35.189Z,58.00
2018-08-13T19:41:03.161Z,57.50
2018-08-13T19:43:31.879Z,57.80
2018-08-13T19:45:59.843Z,58.20
2018-08-13T19:48:27.837Z,58.40
2018-08-13T19:50:55.807Z,59.40
2018-08-13T19:53:23.783Z,59.40
2018-08-13T19:55:52.304Z,59.80
2018-08-13T19:58:20.621Z,59.80
2018-08-13T20:00:48.912Z,60.20
2018-08-13T20:03:16.946Z,59.80
2018-08-13T20:05:44.873Z,59.60
2018-08-13T20:08:12.893Z,59.70
2018-08-13T20:10:40.852Z,60.00
2018-08-13T20:13:08.894Z,59.60
2018-08-13T20:15:36.913Z,59.50
2018-08-13T20:18:05.333Z,59.70
2018-08-13T20:20:33.387Z,59.60
2018-08-13T20:23:01.339Z,59.30
2018-08-13T20:25:29.325Z,59.10
2018-08-13T20:27:57.518Z,58.90
2018-08-13T20:30:26.788Z,59.00
2018-08-13T20:32:54.864Z,59.50
2018-08-13T20:35:23.198Z,59.70
2018-08-13T20:37:51.220Z,62.50
2018-08-13T20:40:20.342Z,63.40
2018-08-13T20:42:49.562Z,62.20
2018-08-13T20:45:19.177Z,61.50
2018-08-13T20:47:47.622Z,61.00
2018-08-13T20:50:18.878Z,61.60
2018-08-13T20:52:48.045Z,62.40
2018-08-13T20:55:18.512Z,63.00
2018-08-13T20:57:47.760Z,64.90
2018-08-13T21:00:17.130Z,68.00
2018-08-13T21:02:46.187Z,71.80
2018-08-13T21:05:14.421Z,74.50
2018-08-13T21:07:44.190Z,77.10
2018-08-13T21:10:15.061Z,79.10
2018-08-13T21:12:43.720Z,81.60
2018-08-13T21:15:13.105Z,84.30
2018-08-13T21:17:41.743Z,85.10
2018-08-13T21:20:11.454Z,86.40
2018-08-13T21:22:39.908Z,87.20
2018-08-13T21:25:11.729Z,87.90
2018-08-13T21:27:40.253Z,87.90
2018-08-13T21:30:08.797Z,88.60
2018-08-13T21:32:37.418Z,88.30
2018-08-13T21:35:05.498Z,89.40
2018-08-13T21:37:33.968Z,88.90
2018-08-13T21:40:01.980Z,89.10
2018-08-13T21:42:30.309Z,89.60
2018-08-13T21:44:59.018Z,88.90
2018-08-13T21:47:27.092Z,89.10
2018-08-13T21:49:55.955Z,89.10
2018-08-13T21:52:23.938Z,89.30
2018-08-13T21:54:51.957Z,89.80
2018-08-13T21:57:23.929Z,90.00
2018-08-13T21:59:53.361Z,90.20
2018-08-13T22:02:21.429Z,90.50
2018-08-13T22:04:49.467Z,90.40
2018-08-13T22:07:18.331Z,90.70
2018-08-13T22:09:46.310Z,90.80
2018-08-13T22:12:19.054Z,90.90
2018-08-13T22:14:48.146Z,91.10
2018-08-13T22:17:17.208Z,91.10
2018-08-13T22:19:45.628Z,91.20
2018-08-13T22:22:13.974Z,91.10
2018-08-13T22:24:53.913Z,91.30
2018-08-13T22:27:21.847Z,91.40
2018-08-13T22:29:50.716Z,91.60
2018-08-13T22:32:18.707Z,92.00
2018-08-13T22:34:46.693Z,92.30
2018-08-13T22:37:15.345Z,92.30
2018-08-13T22:39:44.117Z,92.90
2018-08-13T22:42:12.065Z,93.20
2018-08-13T22:44:40.364Z,93.50
2018-08-13T22:47:08.351Z,93.60
2018-08-13T22:49:36.357Z,93.80
2018-08-13T22:52:05.598Z,93.80
2018-08-13T22:54:34.149Z,93.70
2018-08-13T22:57:03.531Z,93.40
2018-08-13T22:59:31.513Z,93.40
2018-08-13T23:01:59.841Z,93.20
2018-08-13T23:04:27.800Z,93.20
2018-08-13T23:06:56.090Z,93.20
2018-08-13T23:09:24.010Z,93.10
2018-08-13T23:11:51.945Z,93.00
2018-08-13T23:14:19.900Z,93.00
2018-08-13T23:16:47.845Z,93.10
2018-08-13T23:19:16.363Z,93.20
2018-08-13T23:21:44.795Z,93.20
2018-08-13T23:24:12.724Z,93.30
2018-08-13T23:26:41.594Z,93.40
2018-08-13T23:29:09.514Z,93.50
2018-08-13T23:31:37.459Z,93.70
2018-08-13T23:34:05.677Z,93.70
2018-08-13T23:36:33.679Z,93.70
2018-08-13T23:39:01.712Z,93.80
2018-08-13T23:41:30.119Z,93.90
2018-08-13T23:43:58.100Z,94.00
2018-08-13T23:46:26.097Z,93.80
2018-08-13T23:48:54.234Z,94.00
2018-08-13T23:51:22.238Z,94.00
2018-08-13T23:53:50.171Z,94.10
2018-08-13T23:56:18.146Z,94.10
2018-08-13T23:58:46.795Z,94.20
